Time;durP1;ratioP1;P1;durP2;ratioP2;P2;SDS_P1;SDS_P2;PMS_P1;PMS_P2;Temp;Humidity;BMP_temperature;BMP_pressure;BME280_temperature;BME280_humidity;BME280_pressure;Samples;Min_cycle;Max_cycle;Signal;HPM_P1;HPM_P2
2022/12/20 00:01:10;;;;;;;15.93;11.53;;;6.50;99.90;;;;;;5051540;28;20239;-51
2022/12/20 00:03:38;;;;;;;15.63;11.63;;;6.50;99.90;;;;;;5052251;28;20683;-51
2022/12/20 00:06:09;;;;;;;15.63;11.63;;;6.50;99.90;;;;;;5052057;28;20235;-51
2022/12/20 00:08:38;;;;;;;14.63;12.13;;;6.50;99.90;;;;;;5051626;28;20227;-49
2022/12/20 00:11:07;;;;;;;15.63;11.37;;;6.50;99.90;;;;;;5052387;28;20224;-51
2022/12/20 00:13:36;;;;;;;14.77;11.00;;;6.60;99.90;;;;;;5051843;28;20275;-50
2022/12/20 00:16:06;;;;;;;15.67;10.90;;;6.60;99.90;;;;;;5051966;28;20263;-51
2022/12/20 00:18:34;;;;;;;13.77;11.30;;;6.60;99.90;;;;;;5060076;28;20764;-48
2022/12/20 00:21:04;;;;;;;14.53;11.33;;;6.60;99.90;;;;;;5072164;28;20758;-47
2022/12/20 00:23:35;;;;;;;13.77;11.10;;;6.60;99.90;;;;;;5072194;28;20234;-51
2022/12/20 00:26:04;;;;;;;14.10;11.17;;;6.70;99.90;;;;;;5072839;28;20227;-50
2022/12/20 00:28:33;;;;;;;13.47;10.70;;;6.70;99.90;;;;;;5055937;28;20576;-52
2022/12/20 00:31:01;;;;;;;12.67;10.17;;;6.70;99.90;;;;;;5037463;28;20240;-51
2022/12/20 00:33:29;;;;;;;13.03;10.37;;;6.70;99.90;;;;;;5055403;28;20252;-51
2022/12/20 00:35:58;;;;;;;14.20;10.80;;;6.70;99.90;;;;;;5055333;28;20231;-50
2022/12/20 00:38:27;;;;;;;12.90;10.87;;;6.70;99.90;;;;;;5063741;28;20229;-48
2022/12/20 00:41:04;;;;;;;13.07;10.50;;;6.70;99.90;;;;;;5061616;28;20243;-51
2022/12/20 00:43:33;;;;;;;13.10;9.90;;;6.80;99.90;;;;;;5055197;28;20224;-47
2022/12/20 00:46:02;;;;;;;13.47;9.97;;;6.70;99.90;;;;;;5055303;28;20212;-51
2022/12/20 00:48:31;;;;;;;13.60;10.17;;;6.70;99.90;;;;;;5037188;28;20235;-51
2022/12/20 00:51:00;;;;;;;12.73;9.63;;;6.70;99.90;;;;;;5055237;28;20224;-47
2022/12/20 00:53:29;;;;;;;11.87;10.03;;;6.70;99.90;;;;;;5055049;28;20220;-49
2022/12/20 00:55:58;;;;;;;12.13;10.37;;;6.70;99.90;;;;;;5037180;28;20236;-51
2022/12/20 00:58:28;;;;;;;11.10;8.97;;;6.70;99.90;;;;;;5036977;28;20224;-51
2022/12/20 01:00:57;;;;;;;13.30;10.10;;;6.70;99.90;;;;;;5054667;28;20706;-50
2022/12/20 01:03:26;;;;;;;13.10;10.23;;;6.80;99.90;;;;;;5054739;28;20223;-51
2022/12/20 01:05:57;;;;;;;13.53;9.80;;;6.80;99.90;;;;;;5036984;28;20259;-50
2022/12/20 01:08:25;;;;;;;12.73;9.93;;;6.80;99.90;;;;;;5063061;28;20277;-47
2022/12/20 01:11:01;;;;;;;12.63;9.77;;;6.90;99.90;;;;;;5061719;28;20224;-48
2022/12/20 01:13:31;;;;;;;11.93;9.47;;;6.90;99.90;;;;;;5054651;28;20227;-53
2022/12/20 01:16:04;;;;;;;12.17;8.97;;;6.90;99.90;;;;;;5054756;28;20228;-49
2022/12/20 01:18:32;;;;;;;11.73;9.00;;;6.90;99.90;;;;;;5054687;28;20781;-50
2022/12/20 01:21:02;;;;;;;12.80;9.63;;;7.00;99.90;;;;;;5036980;28;20584;-51
2022/12/20 01:23:30;;;;;;;16.33;10.53;;;7.00;99.90;;;;;;5054899;28;20239;-49
2022/12/20 01:25:59;;;;;;;11.83;9.30;;;7.10;99.90;;;;;;5054531;28;20231;-50
2022/12/20 01:28:29;;;;;;;15.17;9.07;;;7.10;99.90;;;;;;5043466;28;20224;-48
2022/12/20 01:30:58;;;;;;;12.03;9.83;;;7.10;99.90;;;;;;5034596;28;20240;-52
2022/12/20 01:33:26;;;;;;;13.50;10.50;;;7.10;99.90;;;;;;5035789;28;20227;-51
2022/12/20 01:35:56;;;;;;;12.07;9.30;;;7.10;99.90;;;;;;5016463;28;20228;-51
2022/12/20 01:38:25;;;;;;;12.27;9.13;;;7.10;99.90;;;;;;5034223;28;20232;-49
2022/12/20 01:40:53;;;;;;;13.77;10.10;;;7.20;99.90;;;;;;5042781;28;20220;-49
2022/12/20 01:43:22;;;;;;;13.47;9.43;;;7.20;99.90;;;;;;5047986;28;20236;-48
2022/12/20 01:45:50;;;;;;;11.37;9.23;;;7.20;99.90;;;;;;5054631;28;20680;-50
2022/12/20 01:48:25;;;;;;;13.23;8.97;;;7.20;99.90;;;;;;5054303;28;20285;-49
2022/12/20 01:50:53;;;;;;;15.57;9.90;;;7.30;99.90;;;;;;5054263;28;20302;-49
2022/12/20 01:53:23;;;;;;;12.27;9.03;;;7.30;99.90;;;;;;5034400;28;20766;-51
2022/12/20 01:55:52;;;;;;;9.80;8.40;;;7.30;99.90;;;;;;5016210;28;20239;-51
2022/12/20 01:58:21;;;;;;;10.63;8.80;;;7.30;99.90;;;;;;5024398;28;20231;-49
2022/12/20 02:00:49;;;;;;;12.57;9.50;;;7.30;99.90;;;;;;5032735;28;20232;-51
2022/12/20 02:03:19;;;;;;;14.87;9.13;;;7.30;99.90;;;;;;5036823;28;20243;-47
2022/12/20 02:05:47;;;;;;;13.37;9.47;;;7.30;99.90;;;;;;5033853;28;20248;-49
2022/12/20 02:08:19;;;;;;;12.27;9.30;;;7.30;99.90;;;;;;5023924;28;20228;-50
2022/12/20 02:11:05;;;;;;;10.33;8.93;;;7.30;99.90;;;;;;5035024;28;20338;-51
2022/12/20 02:13:43;;;;;;;10.23;9.13;;;7.40;99.90;;;;;;5048623;28;20227;-51
2022/12/20 02:16:19;;;;;;;12.93;9.20;;;7.40;99.90;;;;;;5053552;28;20227;-51
2022/12/20 02:18:58;;;;;;;9.80;8.80;;;7.40;99.90;;;;;;5053275;28;20247;-50
2022/12/20 02:21:34;;;;;;;11.23;9.00;;;7.40;99.90;;;;;;5053411;28;20232;-50
2022/12/20 02:24:42;;;;;;;13.87;8.43;;;7.40;99.90;;;;;;5053364;28;20230;-51
2022/12/20 02:27:48;;;;;;;10.30;8.43;;;7.50;99.90;;;;;;5031106;28;20315;-48
2022/12/20 02:30:20;;;;;;;11.07;8.37;;;7.50;99.90;;;;;;5020967;28;20232;-49
2022/12/20 02:32:55;;;;;;;10.40;8.73;;;7.50;99.90;;;;;;5022328;28;20225;-51
2022/12/20 02:35:26;;;;;;;10.83;8.27;;;7.50;99.90;;;;;;5015620;28;20223;-50
2022/12/20 02:37:56;;;;;;;9.80;8.60;;;7.50;99.90;;;;;;5020558;28;20244;-51
2022/12/20 02:40:28;;;;;;;10.03;8.70;;;7.50;99.90;;;;;;5038716;28;20216;-49
2022/12/20 02:42:59;;;;;;;12.07;8.43;;;7.50;99.90;;;;;;5044692;28;20224;-50
2022/12/20 02:45:33;;;;;;;10.67;8.27;;;7.60;99.90;;;;;;5034999;28;20641;-51
2022/12/20 02:48:04;;;;;;;10.63;8.53;;;7.50;99.90;;;;;;5053017;28;20294;-51
2022/12/20 02:50:38;;;;;;;10.40;8.90;;;7.60;99.90;;;;;;5034758;28;20718;-51
2022/12/20 02:53:08;;;;;;;10.67;8.47;;;7.60;99.90;;;;;;5053112;28;20215;-50
2022/12/20 02:55:45;;;;;;;11.73;8.37;;;7.60;99.90;;;;;;5035031;28;20286;-48
2022/12/20 02:58:23;;;;;;;9.23;8.33;;;7.60;99.90;;;;;;5026275;28;20220;-51
2022/12/20 03:00:56;;;;;;;11.13;8.33;;;7.60;99.90;;;;;;5032118;28;20282;-51
2022/12/20 03:03:25;;;;;;;10.40;8.50;;;7.60;99.90;;;;;;5034369;28;20235;-49
2022/12/20 03:05:55;;;;;;;10.60;8.30;;;7.60;99.90;;;;;;5032742;28;20225;-50
2022/12/20 03:08:24;;;;;;;9.23;8.27;;;7.60;99.90;;;;;;5015224;28;20233;-48
2022/12/20 03:10:53;;;;;;;12.53;8.47;;;7.60;99.90;;;;;;5040956;28;20219;-49
2022/12/20 03:13:23;;;;;;;12.97;8.87;;;7.70;99.90;;;;;;5028527;28;20242;-50
2022/12/20 03:15:59;;;;;;;9.47;8.47;;;7.70;99.90;;;;;;5034835;28;20239;-51
2022/12/20 03:18:27;;;;;;;11.67;9.27;;;7.70;99.90;;;;;;5038505;28;20685;-48
2022/12/20 03:20:55;;;;;;;9.70;8.17;;;7.70;99.90;;;;;;5051313;28;20234;-52
2022/12/20 03:23:23;;;;;;;11.00;9.03;;;7.70;99.90;;;;;;5053234;28;20575;-49
2022/12/20 03:25:51;;;;;;;9.73;8.70;;;7.70;99.90;;;;;;5051310;28;20228;-50
2022/12/20 03:28:28;;;;;;;9.40;7.77;;;7.80;99.90;;;;;;5042734;28;20228;-51
2022/12/20 03:30:58;;;;;;;11.57;8.70;;;7.80;99.90;;;;;;5050827;28;20242;-47
2022/12/20 03:33:27;;;;;;;11.67;7.93;;;7.80;99.90;;;;;;5050697;28;20327;-50
2022/12/20 03:35:58;;;;;;;11.30;8.30;;;7.80;99.90;;;;;;5050995;28;20274;-51
2022/12/20 03:38:26;;;;;;;12.73;8.80;;;7.80;99.90;;;;;;5050990;28;20235;-51
2022/12/20 03:40:54;;;;;;;10.97;7.87;;;7.90;99.90;;;;;;5052331;28;20224;-47
2022/12/20 03:43:22;;;;;;;10.80;8.93;;;7.90;99.90;;;;;;5052366;28;20219;-52
2022/12/20 03:45:50;;;;;;;11.53;8.33;;;7.90;99.90;;;;;;5051033;28;20691;-49
2022/12/20 03:48:21;;;;;;;11.03;8.40;;;7.90;99.90;;;;;;5050390;28;20644;-52
2022/12/20 03:50:49;;;;;;;9.53;7.63;;;7.90;99.90;;;;;;5052242;28;20652;-50
2022/12/20 03:53:17;;;;;;;9.10;7.83;;;7.90;99.90;;;;;;5050992;28;20697;-50
2022/12/20 03:55:45;;;;;;;11.87;7.87;;;7.90;99.90;;;;;;5051004;28;20258;-50
2022/12/20 03:58:14;;;;;;;9.40;8.13;;;7.90;99.90;;;;;;5037941;28;20285;-51
2022/12/20 04:00:42;;;;;;;8.90;7.53;;;7.90;99.90;;;;;;5050748;28;20297;-50
2022/12/20 04:03:33;;;;;;;10.67;8.20;;;7.90;99.90;;;;;;5054506;28;20277;-51
2022/12/20 04:06:02;;;;;;;9.80;7.60;;;7.90;99.90;;;;;;5055930;28;20230;-49
2022/12/20 04:08:30;;;;;;;8.90;7.97;;;7.90;99.90;;;;;;5054633;28;20251;-49
2022/12/20 04:11:16;;;;;;;10.07;7.63;;;8.00;99.90;;;;;;5054679;28;20278;-52
2022/12/20 04:13:52;;;;;;;9.77;7.13;;;8.00;99.90;;;;;;5054597;28;20228;-51
2022/12/20 04:16:23;;;;;;;8.77;7.20;;;8.00;99.90;;;;;;5055045;28;20228;-48
2022/12/20 04:18:53;;;;;;;13.20;8.33;;;8.00;99.90;;;;;;5054547;28;20248;-49
2022/12/20 04:21:22;;;;;;;11.70;7.57;;;8.00;99.90;;;;;;5056108;28;20239;-49
2022/12/20 04:23:52;;;;;;;9.80;8.10;;;8.00;99.90;;;;;;5054537;28;20231;-50
2022/12/20 04:26:21;;;;;;;9.67;7.90;;;8.00;99.90;;;;;;5054382;28;20234;-48
2022/12/20 04:28:50;;;;;;;9.20;7.27;;;8.00;99.90;;;;;;5045941;28;20318;-49
2022/12/20 04:31:19;;;;;;;11.10;7.67;;;7.90;99.90;;;;;;5053793;28;20319;-48
2022/12/20 04:33:54;;;;;;;9.20;7.90;;;7.90;99.90;;;;;;5045533;28;20229;-47
2022/12/20 04:36:22;;;;;;;9.63;7.60;;;7.90;99.90;;;;;;5054246;28;20232;-49
2022/12/20 04:38:52;;;;;;;10.67;7.90;;;7.90;99.90;;;;;;5054213;28;20242;-48
2022/12/20 04:41:23;;;;;;;11.03;8.27;;;7.90;99.90;;;;;;5054036;28;20224;-51
2022/12/20 04:43:58;;;;;;;11.73;8.00;;;7.90;99.90;;;;;;5054218;28;20282;-50
2022/12/20 04:46:34;;;;;;;11.93;8.67;;;7.90;99.90;;;;;;5054069;28;20274;-51
2022/12/20 04:49:05;;;;;;;10.57;8.37;;;7.90;99.90;;;;;;5054214;28;20236;-51
2022/12/20 04:51:36;;;;;;;10.43;8.20;;;7.90;99.90;;;;;;5053275;28;20227;-50
2022/12/20 04:54:05;;;;;;;11.67;8.67;;;7.90;99.90;;;;;;5053516;28;20255;-50
2022/12/20 04:56:42;;;;;;;11.03;9.07;;;7.90;99.90;;;;;;5051744;28;20229;-51
2022/12/20 04:59:13;;;;;;;10.90;9.30;;;7.90;99.90;;;;;;5053473;28;20668;-49
2022/12/20 05:01:44;;;;;;;10.87;9.20;;;7.90;99.90;;;;;;5051474;28;20232;-48
2022/12/20 05:04:19;;;;;;;9.43;8.47;;;7.80;99.90;;;;;;5053521;28;20232;-48
2022/12/20 05:06:47;;;;;;;12.67;8.57;;;7.90;99.90;;;;;;5055096;28;20239;-51
2022/12/20 05:09:15;;;;;;;10.60;8.77;;;7.90;99.90;;;;;;5053315;28;20224;-51
2022/12/20 05:11:43;;;;;;;10.53;8.43;;;7.90;99.90;;;;;;5053086;28;20228;-48
2022/12/20 05:14:12;;;;;;;10.73;8.23;;;7.80;99.90;;;;;;5055130;28;20668;-50
2022/12/20 05:16:40;;;;;;;8.77;7.67;;;7.90;99.90;;;;;;5053287;28;20239;-50
2022/12/20 05:19:09;;;;;;;10.33;8.40;;;7.90;99.90;;;;;;5053261;28;20240;-50
2022/12/20 05:27:24;;;;;;;11.97;8.13;;;7.90;99.90;;;;;;5043135;28;20235;-52
2022/12/20 05:29:52;;;;;;;8.87;8.00;;;7.80;99.90;;;;;;5052275;28;20227;-50
2022/12/20 05:32:21;;;;;;;10.10;8.40;;;7.90;99.90;;;;;;5052834;28;20315;-50
2022/12/20 05:34:49;;;;;;;9.87;8.60;;;7.80;99.90;;;;;;5052860;28;20762;-49
2022/12/20 05:37:20;;;;;;;12.57;7.67;;;7.90;99.90;;;;;;5054295;28;20212;-52
2022/12/20 05:39:49;;;;;;;10.97;8.63;;;7.90;99.90;;;;;;5052799;28;20259;-51
2022/12/20 05:42:21;;;;;;;8.57;7.53;;;7.90;99.90;;;;;;5052784;28;20638;-50
2022/12/20 05:44:52;;;;;;;10.53;8.93;;;7.90;99.90;;;;;;5052916;28;20285;-48
2022/12/20 05:47:21;;;;;;;11.83;8.00;;;7.90;99.90;;;;;;5053003;28;20232;-49
2022/12/20 05:49:58;;;;;;;9.00;8.10;;;7.90;99.90;;;;;;5052482;28;20328;-51
2022/12/20 05:52:28;;;;;;;11.60;8.47;;;7.90;99.90;;;;;;5052640;28;20319;-50
2022/12/20 05:54:56;;;;;;;10.83;8.30;;;7.90;99.90;;;;;;5052751;28;20223;-51
2022/12/20 05:57:25;;;;;;;9.70;8.40;;;7.90;99.90;;;;;;5046833;28;20249;-51
2022/12/20 05:59:53;;;;;;;10.27;8.20;;;7.90;99.90;;;;;;5051986;28;20216;-49
2022/12/20 06:02:24;;;;;;;9.40;8.40;;;7.90;99.90;;;;;;5052173;28;20255;-52
2022/12/20 06:05:01;;;;;;;10.40;8.37;;;7.90;99.90;;;;;;5052134;28;20238;-47
2022/12/20 06:07:32;;;;;;;10.47;7.77;;;8.00;99.90;;;;;;5052355;28;20277;-50
2022/12/20 06:10:00;;;;;;;9.33;8.27;;;8.00;99.90;;;;;;5051872;28;20235;-50
2022/12/20 06:12:46;;;;;;;9.53;7.67;;;8.00;99.90;;;;;;5054084;28;20230;-50
2022/12/20 06:15:16;;;;;;;13.50;8.93;;;8.00;99.90;;;;;;5052465;28;20270;-51
2022/12/20 06:17:44;;;;;;;12.40;8.60;;;8.10;99.90;;;;;;5051866;28;20259;-51
2022/12/20 06:20:13;;;;;;;10.43;8.27;;;8.10;99.90;;;;;;5052011;28;20277;-52
2022/12/20 06:22:51;;;;;;;10.17;8.57;;;8.10;99.90;;;;;;5049585;28;20711;-49
2022/12/20 06:25:19;;;;;;;11.87;8.83;;;8.10;99.90;;;;;;5051678;28;20725;-49
2022/12/20 06:27:48;;;;;;;9.87;8.30;;;8.10;99.90;;;;;;5049529;28;20224;-52
2022/12/20 06:30:17;;;;;;;10.10;8.80;;;8.20;99.90;;;;;;5051498;28;20234;-52
2022/12/20 06:33:05;;;;;;;12.07;9.10;;;8.20;99.90;;;;;;5051759;28;20246;-48
2022/12/20 06:35:34;;;;;;;12.53;8.97;;;8.20;99.90;;;;;;5051685;28;20235;-51
2022/12/20 06:38:03;;;;;;;9.77;8.50;;;8.20;99.90;;;;;;5051184;28;20243;-50
2022/12/20 06:40:34;;;;;;;11.93;9.67;;;8.20;99.90;;;;;;5051769;28;20228;-50
2022/12/20 06:43:03;;;;;;;11.13;9.33;;;8.30;99.90;;;;;;5051553;28;20231;-50
2022/12/20 06:45:31;;;;;;;11.60;9.50;;;8.30;99.90;;;;;;5052101;28;20220;-52
2022/12/20 06:48:08;;;;;;;11.20;9.53;;;8.30;99.90;;;;;;5051775;28;20625;-52
2022/12/20 06:50:38;;;;;;;11.13;9.20;;;8.30;99.90;;;;;;5051319;28;20277;-52
2022/12/20 06:53:08;;;;;;;11.33;8.80;;;8.40;99.90;;;;;;5051486;28;20234;-52
2022/12/20 06:55:36;;;;;;;11.60;9.27;;;8.40;99.90;;;;;;5050537;28;20657;-52
2022/12/20 06:58:05;;;;;;;16.97;11.00;;;8.40;99.90;;;;;;5043277;28;20224;-51
2022/12/20 07:00:34;;;;;;;13.63;9.97;;;8.40;99.90;;;;;;5050927;28;20319;-52
2022/12/20 07:03:02;;;;;;;10.70;9.47;;;8.40;99.90;;;;;;5052577;28;20216;-51
2022/12/20 07:05:30;;;;;;;11.73;9.57;;;8.40;99.90;;;;;;5052502;28;20216;-51
2022/12/20 07:07:58;;;;;;;9.83;8.83;;;8.30;99.90;;;;;;5052551;28;20224;-51
2022/12/20 07:10:28;;;;;;;14.97;9.67;;;8.30;99.90;;;;;;5052810;28;20224;-50
2022/12/20 07:12:56;;;;;;;11.53;10.37;;;8.30;99.90;;;;;;5052956;28;20231;-50
2022/12/20 07:15:24;;;;;;;11.07;9.87;;;8.30;99.90;;;;;;5052595;28;20688;-51
2022/12/20 07:17:52;;;;;;;14.23;10.63;;;8.30;99.90;;;;;;5052029;28;20228;-48
2022/12/20 07:20:21;;;;;;;10.97;9.60;;;8.30;99.90;;;;;;5052228;28;20227;-52
2022/12/20 07:22:49;;;;;;;11.53;9.30;;;8.30;99.90;;;;;;5052083;28;20227;-50
2022/12/20 07:25:17;;;;;;;11.67;9.90;;;8.30;99.90;;;;;;5052548;28;20227;-51
2022/12/20 07:27:49;;;;;;;10.63;9.50;;;8.30;99.90;;;;;;5047732;28;20277;-50
2022/12/20 07:30:19;;;;;;;13.00;10.03;;;8.30;99.90;;;;;;5051635;28;20224;-51
2022/12/20 07:32:47;;;;;;;10.70;9.63;;;8.30;99.90;;;;;;5049950;28;20297;-49
2022/12/20 07:35:16;;;;;;;10.83;9.60;;;8.30;99.90;;;;;;5064588;28;20261;-49
2022/12/20 07:37:44;;;;;;;11.87;9.73;;;8.30;99.90;;;;;;5062867;28;20235;-52
2022/12/20 07:40:13;;;;;;;11.90;9.83;;;8.30;99.90;;;;;;5068616;28;20242;-51
2022/12/20 07:42:41;;;;;;;10.63;9.30;;;8.30;99.90;;;;;;5068714;28;20306;-51
2022/12/20 07:45:17;;;;;;;13.73;10.10;;;8.30;99.90;;;;;;5065361;28;20218;-51
2022/12/20 07:47:45;;;;;;;13.27;10.20;;;8.30;99.90;;;;;;5069002;28;20226;-50
2022/12/20 07:50:14;;;;;;;11.03;9.83;;;8.40;99.90;;;;;;5069229;28;20601;-51
2022/12/20 07:52:44;;;;;;;12.37;9.80;;;8.40;99.90;;;;;;5069644;28;20232;-51
2022/12/20 07:55:14;;;;;;;13.30;10.10;;;8.40;99.90;;;;;;5070599;28;20290;-50
2022/12/20 07:57:45;;;;;;;11.10;9.37;;;8.40;99.90;;;;;;5068907;28;20226;-51
2022/12/20 08:00:15;;;;;;;10.57;9.17;;;8.40;99.90;;;;;;5069005;28;20306;-51
2022/12/20 08:02:48;;;;;;;10.03;9.03;;;8.40;99.90;;;;;;5068101;28;20314;-50
2022/12/20 08:05:17;;;;;;;14.90;9.60;;;8.40;99.90;;;;;;5070212;28;20223;-52
2022/12/20 08:07:46;;;;;;;11.60;9.17;;;8.50;99.90;;;;;;5069285;28;20229;-51
2022/12/20 08:10:20;;;;;;;13.90;9.27;;;8.40;99.90;;;;;;5068019;28;20223;-54
2022/12/20 08:12:49;;;;;;;11.97;10.03;;;8.50;99.90;;;;;;5068994;28;20265;-52
2022/12/20 08:15:18;;;;;;;11.90;9.33;;;8.50;99.90;;;;;;5070566;28;20234;-53
2022/12/20 08:17:47;;;;;;;11.27;9.07;;;8.50;99.90;;;;;;5070028;28;20223;-52
2022/12/20 08:20:16;;;;;;;10.87;9.13;;;8.60;99.90;;;;;;5068766;28;20230;-49
2022/12/20 08:22:44;;;;;;;9.53;8.53;;;8.60;99.90;;;;;;5069781;28;20215;-51
2022/12/20 08:25:12;;;;;;;12.87;9.20;;;8.60;99.90;;;;;;5069436;28;20231;-50
2022/12/20 08:27:40;;;;;;;12.03;8.30;;;8.60;99.90;;;;;;5068217;28;20969;-51
2022/12/20 08:30:09;;;;;;;12.13;9.20;;;8.60;99.90;;;;;;5068664;28;20234;-52
2022/12/20 08:32:37;;;;;;;10.33;8.43;;;8.60;99.90;;;;;;5066858;28;20240;-51
2022/12/20 08:35:08;;;;;;;15.70;8.70;;;8.70;99.90;;;;;;5067603;28;20227;-51
2022/12/20 08:37:36;;;;;;;13.13;8.67;;;8.70;99.90;;;;;;5068244;28;20226;-51
2022/12/20 08:40:06;;;;;;;12.73;8.67;;;8.70;99.90;;;;;;5067768;28;20246;-51
2022/12/20 08:42:34;;;;;;;10.37;8.27;;;8.80;99.90;;;;;;5068377;28;20728;-52
2022/12/20 08:45:04;;;;;;;9.90;7.83;;;8.80;99.90;;;;;;5069994;28;20694;-52
2022/12/20 08:47:32;;;;;;;12.30;8.17;;;8.80;99.90;;;;;;5069062;28;20234;-54
2022/12/20 08:50:00;;;;;;;10.33;8.13;;;8.80;99.90;;;;;;5068922;28;20223;-50
2022/12/20 08:52:30;;;;;;;9.77;8.07;;;8.90;99.90;;;;;;5069126;28;20215;-51
2022/12/20 08:54:58;;;;;;;9.50;8.03;;;8.90;99.90;;;;;;5069400;28;20227;-51
2022/12/20 08:57:29;;;;;;;11.23;8.53;;;8.90;99.90;;;;;;5067976;28;20223;-49
2022/12/20 08:59:57;;;;;;;11.33;8.03;;;9.00;99.90;;;;;;5068361;28;20234;-52
2022/12/20 09:02:25;;;;;;;10.90;8.80;;;9.00;99.90;;;;;;5066580;28;20227;-51
2022/12/20 09:04:53;;;;;;;10.67;7.67;;;9.00;99.90;;;;;;5068431;28;20231;-47
2022/12/20 09:07:21;;;;;;;12.40;8.53;;;9.00;99.90;;;;;;5066159;28;20228;-51
2022/12/20 09:09:50;;;;;;;9.73;8.07;;;9.10;99.90;;;;;;5067272;28;20218;-48
2022/12/20 09:12:18;;;;;;;11.97;8.93;;;9.10;99.90;;;;;;5068586;28;20223;-53
2022/12/20 09:14:46;;;;;;;10.60;7.93;;;9.20;99.90;;;;;;5068627;28;20736;-50
2022/12/20 09:17:14;;;;;;;9.93;8.00;;;9.10;99.90;;;;;;5068896;28;20231;-51
2022/12/20 09:19:42;;;;;;;9.20;8.30;;;9.20;99.90;;;;;;5068581;28;20635;-50
2022/12/20 09:22:10;;;;;;;11.07;8.00;;;9.20;99.90;;;;;;5067744;28;20232;-51
2022/12/20 09:24:39;;;;;;;9.03;8.00;;;9.20;99.90;;;;;;5067778;28;20737;-48
2022/12/20 09:27:08;;;;;;;11.70;8.47;;;9.20;99.90;;;;;;5064157;28;20723;-52
2022/12/20 09:29:36;;;;;;;15.13;8.77;;;9.20;99.90;;;;;;5067723;28;20223;-50
2022/12/20 09:32:04;;;;;;;10.33;8.90;;;9.20;99.90;;;;;;5065043;28;20240;-52
2022/12/20 09:34:32;;;;;;;11.87;8.93;;;9.20;99.90;;;;;;5067600;28;20219;-53
2022/12/20 09:37:01;;;;;;;10.30;8.60;;;9.20;99.90;;;;;;5066195;28;20223;-51
2022/12/20 09:39:29;;;;;;;9.53;8.53;;;9.10;99.90;;;;;;5066698;28;20224;-52
2022/12/20 09:41:58;;;;;;;11.10;8.90;;;9.10;99.90;;;;;;5066673;28;20333;-50
2022/12/20 09:44:31;;;;;;;12.10;9.30;;;9.10;99.90;;;;;;5066219;28;20224;-50
2022/12/20 09:47:04;;;;;;;11.67;9.40;;;9.10;99.90;;;;;;5067136;28;20239;-51
2022/12/20 09:49:42;;;;;;;11.27;9.00;;;9.10;99.90;;;;;;5066676;28;20319;-49
2022/12/20 09:52:33;;;;;;;10.23;8.80;;;9.20;99.90;;;;;;5067800;28;20231;-51
2022/12/20 09:55:14;;;;;;;11.23;9.47;;;9.20;99.90;;;;;;5067714;28;20225;-51
2022/12/20 09:57:54;;;;;;;14.37;10.47;;;9.20;99.90;;;;;;5065840;28;20698;-51
2022/12/20 10:00:24;;;;;;;13.07;10.07;;;9.20;99.90;;;;;;5065414;28;20227;-53
2022/12/20 10:02:52;;;;;;;12.13;10.00;;;9.20;99.90;;;;;;5064891;28;20262;-52
2022/12/20 10:05:39;;;;;;;13.47;9.83;;;9.20;99.90;;;;;;5066935;28;20694;-53
2022/12/20 10:08:16;;;;;;;12.43;10.30;;;9.30;99.90;;;;;;5068057;28;20262;-52
2022/12/20 10:10:56;;;;;;;12.73;9.93;;;9.30;99.90;;;;;;5067753;28;20226;-51
2022/12/20 10:13:37;;;;;;;11.43;9.87;;;9.30;99.90;;;;;;5067385;28;20262;-50
2022/12/20 10:16:21;;;;;;;11.03;9.63;;;9.30;99.90;;;;;;5067309;28;20746;-47
2022/12/20 10:19:02;;;;;;;11.40;9.23;;;9.40;99.90;;;;;;5062121;28;20242;-52
2022/12/20 10:21:38;;;;;;;13.00;9.83;;;9.40;99.90;;;;;;5066079;28;20231;-48
2022/12/20 10:24:14;;;;;;;10.23;9.13;;;9.40;99.90;;;;;;5066941;28;20305;-51
2022/12/20 10:26:42;;;;;;;10.30;9.20;;;9.50;99.90;;;;;;5065219;28;20230;-52
2022/12/20 10:29:11;;;;;;;10.03;8.97;;;9.60;99.90;;;;;;5066263;28;20219;-51
2022/12/20 10:31:40;;;;;;;11.03;8.83;;;9.70;99.90;;;;;;5064740;28;20231;-48
2022/12/20 10:34:08;;;;;;;12.00;9.20;;;9.80;99.90;;;;;;5064458;28;20227;-51
2022/12/20 10:36:37;;;;;;;9.23;8.27;;;9.90;99.90;;;;;;5066776;28;20227;-51
2022/12/20 10:39:08;;;;;;;8.87;7.97;;;10.00;99.90;;;;;;5064818;28;20597;-49
2022/12/20 10:41:48;;;;;;;10.70;8.27;;;10.00;99.90;;;;;;5067307;28;20234;-52
2022/12/20 10:44:20;;;;;;;9.83;8.13;;;10.00;99.90;;;;;;5068124;28;20219;-50
2022/12/20 10:46:52;;;;;;;8.43;7.57;;;10.00;99.90;;;;;;5067505;28;20230;-53
2022/12/20 10:49:28;;;;;;;10.30;7.93;;;10.10;99.90;;;;;;5063747;28;20224;-54
2022/12/20 10:51:59;;;;;;;9.27;7.80;;;10.10;99.90;;;;;;5065985;28;20696;-51
2022/12/20 10:54:31;;;;;;;7.97;7.10;;;10.00;99.90;;;;;;5067030;28;20630;-49
2022/12/20 10:57:01;;;;;;;10.27;7.73;;;10.00;99.90;;;;;;5065752;28;20219;-51
2022/12/20 10:59:34;;;;;;;8.13;6.80;;;10.10;99.90;;;;;;5065594;28;20231;-50
2022/12/20 11:02:26;;;;;;;9.17;7.60;;;10.10;99.90;;;;;;5064790;28;20711;-51
2022/12/20 11:05:21;;;;;;;9.10;7.33;;;10.20;99.90;;;;;;5066246;28;20229;-51
2022/12/20 11:07:54;;;;;;;8.20;6.53;;;10.10;99.90;;;;;;5066923;28;20637;-52
2022/12/20 11:10:43;;;;;;;8.83;7.10;;;10.20;99.90;;;;;;5066562;28;20243;-52
2022/12/20 11:13:22;;;;;;;8.57;7.03;;;10.10;99.90;;;;;;5063966;28;20232;-47
2022/12/20 11:15:54;;;;;;;9.13;7.73;;;10.10;99.90;;;;;;5066410;28;20683;-52
2022/12/20 11:18:35;;;;;;;8.93;7.20;;;10.10;99.90;;;;;;5065513;28;20239;-51
2022/12/20 11:21:19;;;;;;;12.10;8.03;;;10.10;99.90;;;;;;5063923;28;20718;-51
2022/12/20 11:24:02;;;;;;;12.00;8.10;;;10.20;99.90;;;;;;5066484;28;20314;-54
2022/12/20 11:26:42;;;;;;;10.93;7.90;;;10.20;99.90;;;;;;5065870;28;20251;-50
2022/12/20 11:29:25;;;;;;;8.83;7.40;;;10.20;99.90;;;;;;5065129;28;20230;-53
2022/12/20 11:32:03;;;;;;;8.87;7.37;;;10.20;99.90;;;;;;5065005;28;21445;-50
2022/12/20 11:34:42;;;;;;;7.93;6.90;;;10.30;99.90;;;;;;5063912;28;20220;-49
2022/12/20 11:37:19;;;;;;;8.93;7.17;;;10.30;99.90;;;;;;5063445;28;20607;-54
2022/12/20 11:40:00;;;;;;;8.80;6.97;;;10.30;99.90;;;;;;5064242;28;20225;-50
2022/12/20 11:42:37;;;;;;;8.43;6.20;;;10.40;99.90;;;;;;5063078;28;20743;-49
2022/12/20 11:45:15;;;;;;;7.27;6.17;;;10.40;99.90;;;;;;5061925;28;20596;-50
2022/12/20 11:48:02;;;;;;;8.20;6.40;;;10.40;99.90;;;;;;5064914;28;20235;-51
2022/12/20 11:50:49;;;;;;;8.87;5.87;;;10.40;99.90;;;;;;5064663;28;20694;-51
2022/12/20 11:53:22;;;;;;;7.97;7.17;;;10.30;99.90;;;;;;5064569;28;20227;-50
2022/12/20 11:55:54;;;;;;;7.87;6.83;;;10.30;99.90;;;;;;5061905;28;20310;-49
2022/12/20 11:58:27;;;;;;;8.17;7.37;;;10.20;99.90;;;;;;5062436;28;20234;-50
2022/12/20 12:00:59;;;;;;;10.20;6.83;;;10.10;99.90;;;;;;5062662;28;20231;-53
2022/12/20 12:03:34;;;;;;;9.60;7.00;;;10.10;99.90;;;;;;5060955;28;20260;-50
2022/12/20 12:06:07;;;;;;;12.50;7.30;;;10.00;99.90;;;;;;5062413;28;20215;-50
2022/12/20 12:08:43;;;;;;;9.20;7.40;;;9.90;99.90;;;;;;5063006;28;20223;-52
2022/12/20 12:11:17;;;;;;;8.67;7.67;;;9.80;99.90;;;;;;5063999;28;20706;-51
2022/12/20 12:14:07;;;;;;;7.93;6.90;;;9.80;99.90;;;;;;5064003;28;20220;-52
2022/12/20 12:16:39;;;;;;;9.17;7.10;;;9.80;99.90;;;;;;5065682;28;20230;-53
2022/12/20 12:19:11;;;;;;;10.27;7.53;;;9.80;99.90;;;;;;5065215;28;20243;-49
2022/12/20 12:21:46;;;;;;;11.90;8.10;;;9.70;99.90;;;;;;5064230;28;20224;-50
2022/12/20 12:24:22;;;;;;;10.27;7.97;;;9.70;99.90;;;;;;5068022;28;20227;-50
2022/12/20 12:26:52;;;;;;;10.20;7.80;;;9.70;99.90;;;;;;5065449;28;20218;-51
2022/12/20 12:29:22;;;;;;;13.63;8.40;;;9.70;99.90;;;;;;5068118;28;20583;-51
2022/12/20 12:31:54;;;;;;;9.83;8.27;;;9.60;99.90;;;;;;5064952;28;20231;-52
2022/12/20 12:34:36;;;;;;;11.97;8.70;;;9.60;99.90;;;;;;5067264;28;20228;-52
2022/12/20 12:37:28;;;;;;;9.80;8.80;;;9.60;99.90;;;;;;5069151;28;20229;-52
2022/12/20 12:40:21;;;;;;;10.10;8.33;;;9.60;99.90;;;;;;5069460;28;20281;-51
2022/12/20 12:43:23;;;;;;;11.77;8.33;;;9.60;99.90;;;;;;5068845;28;20227;-51
2022/12/20 12:45:56;;;;;;;12.27;8.30;;;9.60;99.90;;;;;;5065756;28;20229;-52
2022/12/20 12:48:30;;;;;;;12.40;8.93;;;9.60;99.90;;;;;;5069997;28;20238;-50
2022/12/20 12:51:01;;;;;;;9.90;8.83;;;9.60;99.90;;;;;;5067618;28;20737;-51
2022/12/20 12:53:36;;;;;;;9.57;7.97;;;9.50;99.90;;;;;;5067834;28;20215;-50
2022/12/20 12:56:29;;;;;;;12.10;8.90;;;9.60;99.90;;;;;;5070186;28;20687;-50
2022/12/20 12:59:41;;;;;;;9.87;8.67;;;9.50;99.90;;;;;;5067862;28;20713;-51
2022/12/20 13:02:51;;;;;;;10.53;8.87;;;9.50;99.90;;;;;;5066811;28;20280;-51
2022/12/20 13:05:35;;;;;;;13.07;8.83;;;9.50;99.90;;;;;;5006025;28;20287;-52
2022/12/20 13:08:14;;;;;;;10.23;8.73;;;9.50;99.90;;;;;;5064703;28;20223;-51
2022/12/20 13:11:13;;;;;;;13.13;9.60;;;9.40;99.90;;;;;;5068174;28;20215;-51
2022/12/20 13:13:41;;;;;;;10.93;9.33;;;9.40;99.90;;;;;;5068728;28;20223;-52
2022/12/20 13:16:26;;;;;;;13.13;9.50;;;9.40;99.90;;;;;;5067412;28;20327;-50
2022/12/20 13:19:15;;;;;;;10.73;9.07;;;9.40;99.90;;;;;;5066378;28;20316;-48
2022/12/20 13:21:47;;;;;;;11.90;9.07;;;9.40;99.90;;;;;;5068515;28;20234;-50